sensor_id;sensor_type;location;lat;lon;timestamp;P1;durP1;ratioP1;P2;durP2;ratioP2
44606;SDS011;30315;46.072;14.474;2023-09-19T00:00:44;19.42;;;10.65;;
44606;SDS011;30315;46.072;14.474;2023-09-19T00:03:14;11.73;;;10.50;;
44606;SDS011;30315;46.072;14.474;2023-09-19T00:05:41;11.90;;;10.35;;
44606;SDS011;30315;46.072;14.474;2023-09-19T00:08:13;15.50;;;10.52;;
44606;SDS011;30315;46.072;14.474;2023-09-19T00:10:40;14.25;;;10.00;;
44606;SDS011;30315;46.072;14.474;2023-09-19T00:13:09;12.75;;;10.57;;
44606;SDS011;30315;46.072;14.474;2023-09-19T00:15:42;16.50;;;10.95;;
44606;SDS011;30315;46.072;14.474;2023-09-19T00:18:18;14.18;;;11.68;;
44606;SDS011;30315;46.072;14.474;2023-09-19T00:20:51;13.77;;;11.15;;
44606;SDS011;30315;46.072;14.474;2023-09-19T00:23:19;11.75;;;9.98;;
44606;SDS011;30315;46.072;14.474;2023-09-19T00:25:47;17.50;;;10.35;;
44606;SDS011;30315;46.072;14.474;2023-09-19T00:28:14;12.25;;;9.70;;
44606;SDS011;30315;46.072;14.474;2023-09-19T00:30:42;13.55;;;9.63;;
44606;SDS011;30315;46.072;14.474;2023-09-19T00:33:10;10.57;;;9.48;;
44606;SDS011;30315;46.072;14.474;2023-09-19T00:35:50;10.30;;;9.15;;
44606;SDS011;30315;46.072;14.474;2023-09-19T00:38:18;10.07;;;9.10;;
44606;SDS011;30315;46.072;14.474;2023-09-19T00:40:49;15.07;;;9.48;;
44606;SDS011;30315;46.072;14.474;2023-09-19T00:43:17;13.00;;;9.65;;
44606;SDS011;30315;46.072;14.474;2023-09-19T00:45:45;13.25;;;10.07;;
44606;SDS011;30315;46.072;14.474;2023-09-19T00:48:15;11.98;;;9.48;;
44606;SDS011;30315;46.072;14.474;2023-09-19T00:50:44;13.10;;;9.85;;
44606;SDS011;30315;46.072;14.474;2023-09-19T00:53:15;10.52;;;9.02;;
44606;SDS011;30315;46.072;14.474;2023-09-19T00:55:47;10.48;;;9.05;;
44606;SDS011;30315;46.072;14.474;2023-09-19T00:58:19;14.13;;;10.60;;
44606;SDS011;30315;46.072;14.474;2023-09-19T01:00:47;11.90;;;9.15;;
44606;SDS011;30315;46.072;14.474;2023-09-19T01:03:15;16.08;;;9.45;;
44606;SDS011;30315;46.072;14.474;2023-09-19T01:05:45;14.23;;;9.57;;
44606;SDS011;30315;46.072;14.474;2023-09-19T01:08:12;15.13;;;10.25;;
44606;SDS011;30315;46.072;14.474;2023-09-19T01:11:14;17.27;;;10.25;;
44606;SDS011;30315;46.072;14.474;2023-09-19T01:13:47;11.27;;;9.25;;
44606;SDS011;30315;46.072;14.474;2023-09-19T01:16:21;11.88;;;9.57;;
44606;SDS011;30315;46.072;14.474;2023-09-19T01:18:55;14.48;;;10.95;;
44606;SDS011;30315;46.072;14.474;2023-09-19T01:22:09;11.55;;;10.25;;
44606;SDS011;30315;46.072;14.474;2023-09-19T01:30:21;12.70;;;10.82;;
44606;SDS011;30315;46.072;14.474;2023-09-19T01:32:51;14.35;;;10.70;;
44606;SDS011;30315;46.072;14.474;2023-09-19T01:35:19;15.27;;;10.70;;
44606;SDS011;30315;46.072;14.474;2023-09-19T01:37:46;13.98;;;9.52;;
44606;SDS011;30315;46.072;14.474;2023-09-19T01:40:14;12.13;;;9.80;;
44606;SDS011;30315;46.072;14.474;2023-09-19T01:45:55;16.23;;;10.30;;
44606;SDS011;30315;46.072;14.474;2023-09-19T01:51:46;16.48;;;9.65;;
44606;SDS011;30315;46.072;14.474;2023-09-19T01:54:16;11.90;;;9.95;;
44606;SDS011;30315;46.072;14.474;2023-09-19T01:56:54;10.65;;;9.30;;
44606;SDS011;30315;46.072;14.474;2023-09-19T01:59:41;11.75;;;9.82;;
44606;SDS011;30315;46.072;14.474;2023-09-19T02:02:15;15.40;;;9.45;;
44606;SDS011;30315;46.072;14.474;2023-09-19T02:04:44;10.38;;;9.18;;
44606;SDS011;30315;46.072;14.474;2023-09-19T02:07:11;13.13;;;9.85;;
44606;SDS011;30315;46.072;14.474;2023-09-19T02:09:38;13.30;;;9.63;;
44606;SDS011;30315;46.072;14.474;2023-09-19T02:12:06;10.48;;;9.00;;
44606;SDS011;30315;46.072;14.474;2023-09-19T02:14:33;12.38;;;9.55;;
44606;SDS011;30315;46.072;14.474;2023-09-19T02:17:02;11.00;;;9.55;;
44606;SDS011;30315;46.072;14.474;2023-09-19T02:19:33;10.27;;;9.18;;
44606;SDS011;30315;46.072;14.474;2023-09-19T02:24:49;15.45;;;9.77;;
44606;SDS011;30315;46.072;14.474;2023-09-19T02:27:17;10.23;;;9.23;;
44606;SDS011;30315;46.072;14.474;2023-09-19T02:29:44;10.25;;;8.65;;
44606;SDS011;30315;46.072;14.474;2023-09-19T02:32:11;9.70;;;7.97;;
44606;SDS011;30315;46.072;14.474;2023-09-19T02:34:39;10.48;;;8.55;;
44606;SDS011;30315;46.072;14.474;2023-09-19T02:37:06;9.57;;;8.65;;
44606;SDS011;30315;46.072;14.474;2023-09-19T02:39:34;9.80;;;8.77;;
44606;SDS011;30315;46.072;14.474;2023-09-19T02:42:02;9.77;;;8.80;;
44606;SDS011;30315;46.072;14.474;2023-09-19T02:44:32;11.05;;;8.55;;
44606;SDS011;30315;46.072;14.474;2023-09-19T02:47:00;8.73;;;7.80;;
44606;SDS011;30315;46.072;14.474;2023-09-19T02:49:28;10.98;;;9.35;;
44606;SDS011;30315;46.072;14.474;2023-09-19T02:51:55;10.80;;;9.75;;
44606;SDS011;30315;46.072;14.474;2023-09-19T02:54:22;11.98;;;9.45;;
44606;SDS011;30315;46.072;14.474;2023-09-19T02:56:49;10.98;;;9.80;;
44606;SDS011;30315;46.072;14.474;2023-09-19T02:59:16;11.40;;;10.20;;
44606;SDS011;30315;46.072;14.474;2023-09-19T03:01:45;14.98;;;10.60;;
44606;SDS011;30315;46.072;14.474;2023-09-19T03:04:15;11.80;;;10.70;;
44606;SDS011;30315;46.072;14.474;2023-09-19T03:06:47;13.48;;;10.95;;
44606;SDS011;30315;46.072;14.474;2023-09-19T03:09:17;13.40;;;11.32;;
44606;SDS011;30315;46.072;14.474;2023-09-19T03:11:46;12.13;;;10.87;;
44606;SDS011;30315;46.072;14.474;2023-09-19T03:14:13;16.42;;;12.65;;
44606;SDS011;30315;46.072;14.474;2023-09-19T03:16:42;18.77;;;14.02;;
44606;SDS011;30315;46.072;14.474;2023-09-19T03:21:42;15.35;;;12.82;;
44606;SDS011;30315;46.072;14.474;2023-09-19T03:24:09;13.10;;;11.77;;
44606;SDS011;30315;46.072;14.474;2023-09-19T03:26:38;18.52;;;12.40;;
44606;SDS011;30315;46.072;14.474;2023-09-19T03:29:06;15.00;;;12.50;;
44606;SDS011;30315;46.072;14.474;2023-09-19T03:31:33;18.10;;;12.20;;
44606;SDS011;30315;46.072;14.474;2023-09-19T03:34:06;14.88;;;11.98;;
44606;SDS011;30315;46.072;14.474;2023-09-19T03:36:33;13.20;;;11.80;;
44606;SDS011;30315;46.072;14.474;2023-09-19T03:39:01;14.38;;;11.30;;
44606;SDS011;30315;46.072;14.474;2023-09-19T03:41:32;12.30;;;10.70;;
44606;SDS011;30315;46.072;14.474;2023-09-19T03:44:00;15.15;;;10.02;;
44606;SDS011;30315;46.072;14.474;2023-09-19T03:46:26;14.77;;;11.55;;
44606;SDS011;30315;46.072;14.474;2023-09-19T03:48:54;11.40;;;10.02;;
44606;SDS011;30315;46.072;14.474;2023-09-19T03:51:22;13.27;;;10.13;;
44606;SDS011;30315;46.072;14.474;2023-09-19T03:53:49;13.00;;;10.65;;
44606;SDS011;30315;46.072;14.474;2023-09-19T03:56:16;10.48;;;9.48;;
44606;SDS011;30315;46.072;14.474;2023-09-19T03:58:43;11.07;;;7.97;;
44606;SDS011;30315;46.072;14.474;2023-09-19T04:01:11;10.45;;;8.55;;
44606;SDS011;30315;46.072;14.474;2023-09-19T04:03:39;7.63;;;6.83;;
44606;SDS011;30315;46.072;14.474;2023-09-19T04:06:14;6.82;;;6.07;;
44606;SDS011;30315;46.072;14.474;2023-09-19T04:08:42;8.68;;;6.20;;
44606;SDS011;30315;46.072;14.474;2023-09-19T04:11:11;6.97;;;6.30;;
44606;SDS011;30315;46.072;14.474;2023-09-19T04:13:38;7.22;;;6.53;;
44606;SDS011;30315;46.072;14.474;2023-09-19T04:16:05;8.30;;;6.15;;
44606;SDS011;30315;46.072;14.474;2023-09-19T04:18:35;7.60;;;5.93;;
44606;SDS011;30315;46.072;14.474;2023-09-19T04:21:05;5.93;;;5.30;;
44606;SDS011;30315;46.072;14.474;2023-09-19T04:23:34;9.57;;;5.75;;
44606;SDS011;30315;46.072;14.474;2023-09-19T04:26:07;7.80;;;5.75;;
44606;SDS011;30315;46.072;14.474;2023-09-19T04:28:39;6.97;;;5.72;;
44606;SDS011;30315;46.072;14.474;2023-09-19T04:31:07;6.50;;;5.50;;
44606;SDS011;30315;46.072;14.474;2023-09-19T04:33:35;9.05;;;6.10;;
44606;SDS011;30315;46.072;14.474;2023-09-19T04:36:02;6.10;;;5.60;;
44606;SDS011;30315;46.072;14.474;2023-09-19T04:38:54;7.05;;;6.10;;
44606;SDS011;30315;46.072;14.474;2023-09-19T04:41:21;6.57;;;5.93;;
44606;SDS011;30315;46.072;14.474;2023-09-19T04:43:48;5.55;;;5.05;;
44606;SDS011;30315;46.072;14.474;2023-09-19T04:46:17;6.25;;;4.28;;
44606;SDS011;30315;46.072;14.474;2023-09-19T04:48:44;5.25;;;3.85;;
44606;SDS011;30315;46.072;14.474;2023-09-19T04:51:11;3.15;;;2.95;;
44606;SDS011;30315;46.072;14.474;2023-09-19T04:53:38;2.67;;;2.28;;
44606;SDS011;30315;46.072;14.474;2023-09-19T04:56:05;3.92;;;1.90;;
44606;SDS011;30315;46.072;14.474;2023-09-19T04:58:34;3.28;;;1.55;;
44606;SDS011;30315;46.072;14.474;2023-09-19T05:01:01;4.50;;;1.40;;
44606;SDS011;30315;46.072;14.474;2023-09-19T05:03:29;1.50;;;1.40;;
44606;SDS011;30315;46.072;14.474;2023-09-19T05:05:56;1.50;;;1.40;;
44606;SDS011;30315;46.072;14.474;2023-09-19T05:08:23;1.83;;;1.70;;
44606;SDS011;30315;46.072;14.474;2023-09-19T05:10:50;2.15;;;1.95;;
44606;SDS011;30315;46.072;14.474;2023-09-19T05:13:17;2.20;;;2.00;;
44606;SDS011;30315;46.072;14.474;2023-09-19T05:15:44;3.10;;;2.80;;
44606;SDS011;30315;46.072;14.474;2023-09-19T05:18:11;2.78;;;2.38;;
44606;SDS011;30315;46.072;14.474;2023-09-19T05:20:38;3.47;;;2.45;;
44606;SDS011;30315;46.072;14.474;2023-09-19T05:23:06;2.00;;;1.90;;
44606;SDS011;30315;46.072;14.474;2023-09-19T05:25:39;3.25;;;1.90;;
44606;SDS011;30315;46.072;14.474;2023-09-19T05:30:38;2.58;;;1.58;;
44606;SDS011;30315;46.072;14.474;2023-09-19T05:33:06;2.63;;;1.52;;
44606;SDS011;30315;46.072;14.474;2023-09-19T05:35:34;2.60;;;1.50;;
44606;SDS011;30315;46.072;14.474;2023-09-19T05:38:06;2.45;;;1.40;;
44606;SDS011;30315;46.072;14.474;2023-09-19T05:40:35;1.55;;;1.45;;
44606;SDS011;30315;46.072;14.474;2023-09-19T05:43:02;2.35;;;1.58;;
44606;SDS011;30315;46.072;14.474;2023-09-19T05:45:32;2.10;;;1.73;;
44606;SDS011;30315;46.072;14.474;2023-09-19T05:48:07;1.50;;;1.40;;
44606;SDS011;30315;46.072;14.474;2023-09-19T05:50:35;2.17;;;1.50;;
44606;SDS011;30315;46.072;14.474;2023-09-19T05:53:02;2.72;;;1.42;;
44606;SDS011;30315;46.072;14.474;2023-09-19T05:55:31;3.13;;;1.90;;
44606;SDS011;30315;46.072;14.474;2023-09-19T05:57:58;3.17;;;2.10;;
44606;SDS011;30315;46.072;14.474;2023-09-19T06:00:26;3.40;;;2.20;;
44606;SDS011;30315;46.072;14.474;2023-09-19T06:02:54;2.40;;;1.92;;
44606;SDS011;30315;46.072;14.474;2023-09-19T06:07:51;2.35;;;1.80;;
44606;SDS011;30315;46.072;14.474;2023-09-19T06:10:18;2.33;;;1.70;;
44606;SDS011;30315;46.072;14.474;2023-09-19T06:12:47;3.22;;;1.30;;
44606;SDS011;30315;46.072;14.474;2023-09-19T06:15:14;2.85;;;1.70;;
44606;SDS011;30315;46.072;14.474;2023-09-19T06:17:49;1.58;;;1.50;;
44606;SDS011;30315;46.072;14.474;2023-09-19T06:20:18;2.20;;;1.70;;
44606;SDS011;30315;46.072;14.474;2023-09-19T06:22:46;8.10;;;1.90;;
44606;SDS011;30315;46.072;14.474;2023-09-19T06:25:14;2.17;;;1.60;;
44606;SDS011;30315;46.072;14.474;2023-09-19T06:27:47;1.80;;;1.65;;
44606;SDS011;30315;46.072;14.474;2023-09-19T06:30:15;3.03;;;1.73;;
44606;SDS011;30315;46.072;14.474;2023-09-19T06:32:43;2.47;;;1.80;;
44606;SDS011;30315;46.072;14.474;2023-09-19T06:35:11;3.45;;;1.88;;
44606;SDS011;30315;46.072;14.474;2023-09-19T06:37:42;1.95;;;1.60;;
44606;SDS011;30315;46.072;14.474;2023-09-19T06:40:13;3.83;;;2.10;;
44606;SDS011;30315;46.072;14.474;2023-09-19T06:42:41;3.92;;;1.80;;
44606;SDS011;30315;46.072;14.474;2023-09-19T06:45:11;4.45;;;1.80;;
44606;SDS011;30315;46.072;14.474;2023-09-19T06:47:40;2.65;;;1.60;;
44606;SDS011;30315;46.072;14.474;2023-09-19T06:50:20;2.28;;;1.60;;
44606;SDS011;30315;46.072;14.474;2023-09-19T06:53:05;1.98;;;1.63;;
44606;SDS011;30315;46.072;14.474;2023-09-19T06:55:32;1.55;;;1.45;;
44606;SDS011;30315;46.072;14.474;2023-09-19T06:58:06;2.70;;;1.88;;
44606;SDS011;30315;46.072;14.474;2023-09-19T07:01:34;1.60;;;1.50;;
44606;SDS011;30315;46.072;14.474;2023-09-19T07:04:04;1.45;;;1.35;;
44606;SDS011;30315;46.072;14.474;2023-09-19T07:06:31;1.70;;;1.50;;
44606;SDS011;30315;46.072;14.474;2023-09-19T07:08:59;4.40;;;2.05;;
44606;SDS011;30315;46.072;14.474;2023-09-19T07:11:30;2.40;;;2.20;;
44606;SDS011;30315;46.072;14.474;2023-09-19T07:13:57;3.70;;;1.98;;
44606;SDS011;30315;46.072;14.474;2023-09-19T07:16:25;2.83;;;1.90;;
44606;SDS011;30315;46.072;14.474;2023-09-19T07:18:56;3.83;;;2.00;;
44606;SDS011;30315;46.072;14.474;2023-09-19T07:21:23;2.90;;;1.90;;
44606;SDS011;30315;46.072;14.474;2023-09-19T07:23:51;3.17;;;1.98;;
44606;SDS011;30315;46.072;14.474;2023-09-19T07:26:20;3.60;;;2.15;;
44606;SDS011;30315;46.072;14.474;2023-09-19T07:28:47;5.35;;;1.92;;
44606;SDS011;30315;46.072;14.474;2023-09-19T07:31:14;2.30;;;2.10;;
44606;SDS011;30315;46.072;14.474;2023-09-19T07:33:41;2.53;;;1.90;;
44606;SDS011;30315;46.072;14.474;2023-09-19T07:36:12;2.70;;;1.90;;
44606;SDS011;30315;46.072;14.474;2023-09-19T07:38:44;2.22;;;2.13;;
44606;SDS011;30315;46.072;14.474;2023-09-19T07:41:33;3.28;;;2.30;;
44606;SDS011;30315;46.072;14.474;2023-09-19T07:44:13;3.95;;;2.58;;
44606;SDS011;30315;46.072;14.474;2023-09-19T07:46:41;3.20;;;2.25;;
44606;SDS011;30315;46.072;14.474;2023-09-19T07:49:13;4.75;;;2.47;;
44606;SDS011;30315;46.072;14.474;2023-09-19T07:51:44;5.05;;;2.65;;
44606;SDS011;30315;46.072;14.474;2023-09-19T07:54:12;2.13;;;1.92;;
44606;SDS011;30315;46.072;14.474;2023-09-19T07:56:41;3.25;;;2.58;;
44606;SDS011;30315;46.072;14.474;2023-09-19T07:59:08;3.10;;;2.38;;
44606;SDS011;30315;46.072;14.474;2023-09-19T08:01:38;2.65;;;2.45;;
44606;SDS011;30315;46.072;14.474;2023-09-19T08:04:07;2.72;;;2.33;;
44606;SDS011;30315;46.072;14.474;2023-09-19T08:06:40;4.10;;;2.47;;
44606;SDS011;30315;46.072;14.474;2023-09-19T08:09:09;3.25;;;2.40;;
44606;SDS011;30315;46.072;14.474;2023-09-19T08:11:40;3.60;;;2.45;;
44606;SDS011;30315;46.072;14.474;2023-09-19T08:14:09;6.68;;;2.08;;
44606;SDS011;30315;46.072;14.474;2023-09-19T08:16:49;2.75;;;2.55;;
44606;SDS011;30315;46.072;14.474;2023-09-19T08:19:17;2.65;;;2.03;;
44606;SDS011;30315;46.072;14.474;2023-09-19T08:21:50;5.38;;;2.47;;
44606;SDS011;30315;46.072;14.474;2023-09-19T08:24:18;5.30;;;2.60;;
44606;SDS011;30315;46.072;14.474;2023-09-19T08:26:48;2.63;;;2.42;;
44606;SDS011;30315;46.072;14.474;2023-09-19T08:29:22;4.95;;;2.83;;
44606;SDS011;30315;46.072;14.474;2023-09-19T08:31:55;3.25;;;2.40;;
44606;SDS011;30315;46.072;14.474;2023-09-19T08:34:23;3.63;;;2.35;;
44606;SDS011;30315;46.072;14.474;2023-09-19T08:36:54;3.70;;;1.95;;
44606;SDS011;30315;46.072;14.474;2023-09-19T08:39:27;2.88;;;2.45;;
44606;SDS011;30315;46.072;14.474;2023-09-19T08:42:01;3.45;;;2.55;;
44606;SDS011;30315;46.072;14.474;2023-09-19T08:44:29;6.68;;;3.22;;
44606;SDS011;30315;46.072;14.474;2023-09-19T08:47:03;5.28;;;2.95;;
44606;SDS011;30315;46.072;14.474;2023-09-19T08:49:54;4.85;;;2.97;;
44606;SDS011;30315;46.072;14.474;2023-09-19T08:52:32;4.28;;;2.28;;
44606;SDS011;30315;46.072;14.474;2023-09-19T08:55:07;2.70;;;2.50;;
44606;SDS011;30315;46.072;14.474;2023-09-19T08:57:36;3.33;;;2.15;;
44606;SDS011;30315;46.072;14.474;2023-09-19T09:00:10;5.88;;;2.75;;
44606;SDS011;30315;46.072;14.474;2023-09-19T09:02:44;4.32;;;2.50;;
44606;SDS011;30315;46.072;14.474;2023-09-19T09:05:13;3.17;;;2.53;;
44606;SDS011;30315;46.072;14.474;2023-09-19T09:07:42;3.05;;;2.65;;
44606;SDS011;30315;46.072;14.474;2023-09-19T09:10:10;2.97;;;2.67;;
44606;SDS011;30315;46.072;14.474;2023-09-19T09:12:38;3.58;;;2.53;;
44606;SDS011;30315;46.072;14.474;2023-09-19T09:15:07;6.85;;;2.80;;
44606;SDS011;30315;46.072;14.474;2023-09-19T09:17:38;6.25;;;3.10;;
44606;SDS011;30315;46.072;14.474;2023-09-19T09:20:05;4.70;;;2.88;;
44606;SDS011;30315;46.072;14.474;2023-09-19T09:22:36;5.43;;;3.38;;
44606;SDS011;30315;46.072;14.474;2023-09-19T09:25:06;7.03;;;3.05;;
44606;SDS011;30315;46.072;14.474;2023-09-19T09:27:34;3.47;;;2.67;;
44606;SDS011;30315;46.072;14.474;2023-09-19T09:30:01;4.13;;;2.80;;
44606;SDS011;30315;46.072;14.474;2023-09-19T09:32:30;2.97;;;2.67;;
44606;SDS011;30315;46.072;14.474;2023-09-19T09:35:01;2.70;;;2.50;;
44606;SDS011;30315;46.072;14.474;2023-09-19T09:37:36;3.25;;;2.55;;
44606;SDS011;30315;46.072;14.474;2023-09-19T09:40:05;2.60;;;1.92;;
44606;SDS011;30315;46.072;14.474;2023-09-19T09:42:41;4.82;;;2.55;;
44606;SDS011;30315;46.072;14.474;2023-09-19T09:45:19;3.55;;;3.00;;
44606;SDS011;30315;46.072;14.474;2023-09-19T09:48:00;3.10;;;2.78;;
44606;SDS011;30315;46.072;14.474;2023-09-19T09:50:31;2.88;;;2.60;;
44606;SDS011;30315;46.072;14.474;2023-09-19T09:53:20;3.85;;;2.10;;
44606;SDS011;30315;46.072;14.474;2023-09-19T09:56:04;3.92;;;2.40;;
44606;SDS011;30315;46.072;14.474;2023-09-19T09:58:49;7.10;;;2.72;;
44606;SDS011;30315;46.072;14.474;2023-09-19T10:01:22;2.95;;;2.70;;
44606;SDS011;30315;46.072;14.474;2023-09-19T10:03:59;6.47;;;3.30;;
44606;SDS011;30315;46.072;14.474;2023-09-19T10:06:39;2.85;;;2.65;;
44606;SDS011;30315;46.072;14.474;2023-09-19T10:09:13;2.90;;;2.60;;
44606;SDS011;30315;46.072;14.474;2023-09-19T10:11:44;3.88;;;3.08;;
44606;SDS011;30315;46.072;14.474;2023-09-19T10:14:14;3.72;;;2.97;;
44606;SDS011;30315;46.072;14.474;2023-09-19T10:16:46;6.47;;;2.53;;
44606;SDS011;30315;46.072;14.474;2023-09-19T10:19:27;2.85;;;2.65;;
44606;SDS011;30315;46.072;14.474;2023-09-19T10:22:01;2.80;;;2.60;;
44606;SDS011;30315;46.072;14.474;2023-09-19T10:24:29;3.70;;;2.70;;
44606;SDS011;30315;46.072;14.474;2023-09-19T10:27:01;3.85;;;2.40;;
44606;SDS011;30315;46.072;14.474;2023-09-19T10:29:31;4.80;;;2.50;;
44606;SDS011;30315;46.072;14.474;2023-09-19T10:32:03;2.67;;;2.33;;
44606;SDS011;30315;46.072;14.474;2023-09-19T10:34:34;3.10;;;2.00;;
44606;SDS011;30315;46.072;14.474;2023-09-19T10:37:02;2.72;;;1.92;;
44606;SDS011;30315;46.072;14.474;2023-09-19T10:39:32;5.10;;;2.47;;
44606;SDS011;30315;46.072;14.474;2023-09-19T10:42:01;3.13;;;2.13;;
44606;SDS011;30315;46.072;14.474;2023-09-19T10:44:32;3.38;;;2.08;;
44606;SDS011;30315;46.072;14.474;2023-09-19T10:47:01;2.42;;;1.77;;
44606;SDS011;30315;46.072;14.474;2023-09-19T10:49:29;3.03;;;1.60;;
44606;SDS011;30315;46.072;14.474;2023-09-19T10:51:58;2.60;;;1.55;;
44606;SDS011;30315;46.072;14.474;2023-09-19T10:54:31;2.08;;;1.85;;
44606;SDS011;30315;46.072;14.474;2023-09-19T10:57:06;2.08;;;1.88;;
44606;SDS011;30315;46.072;14.474;2023-09-19T10:59:36;2.05;;;1.95;;
44606;SDS011;30315;46.072;14.474;2023-09-19T11:02:24;2.95;;;2.00;;
44606;SDS011;30315;46.072;14.474;2023-09-19T11:04:54;2.80;;;2.00;;
44606;SDS011;30315;46.072;14.474;2023-09-19T11:08:12;2.95;;;2.03;;
44606;SDS011;30315;46.072;14.474;2023-09-19T11:10:49;1.75;;;1.65;;
44606;SDS011;30315;46.072;14.474;2023-09-19T11:13:27;1.70;;;1.60;;
44606;SDS011;30315;46.072;14.474;2023-09-19T11:27:02;1.63;;;1.52;;
44606;SDS011;30315;46.072;14.474;2023-09-19T11:29:37;1.75;;;1.60;;
44606;SDS011;30315;46.072;14.474;2023-09-19T11:32:04;2.30;;;2.08;;
44606;SDS011;30315;46.072;14.474;2023-09-19T11:37:03;1.90;;;1.80;;
44606;SDS011;30315;46.072;14.474;2023-09-19T11:40:05;3.22;;;1.70;;
44606;SDS011;30315;46.072;14.474;2023-09-19T11:42:49;1.90;;;1.50;;
44606;SDS011;30315;46.072;14.474;2023-09-19T11:46:08;2.55;;;1.80;;
44606;SDS011;30315;46.072;14.474;2023-09-19T11:48:24;1.80;;;1.70;;
44606;SDS011;30315;46.072;14.474;2023-09-19T11:50:53;1.95;;;1.70;;
44606;SDS011;30315;46.072;14.474;2023-09-19T11:53:21;1.95;;;1.75;;
44606;SDS011;30315;46.072;14.474;2023-09-19T11:55:49;1.70;;;1.60;;
44606;SDS011;30315;46.072;14.474;2023-09-19T11:58:17;2.85;;;2.58;;
44606;SDS011;30315;46.072;14.474;2023-09-19T12:01:09;2.63;;;2.42;;
44606;SDS011;30315;46.072;14.474;2023-09-19T12:03:45;2.47;;;2.05;;
44606;SDS011;30315;46.072;14.474;2023-09-19T12:06:14;2.25;;;1.98;;
44606;SDS011;30315;46.072;14.474;2023-09-19T12:08:43;1.57;;;1.47;;
44606;SDS011;30315;46.072;14.474;2023-09-19T12:11:13;3.25;;;1.75;;
44606;SDS011;30315;46.072;14.474;2023-09-19T12:13:44;2.70;;;1.50;;
44606;SDS011;30315;46.072;14.474;2023-09-19T12:16:22;1.80;;;1.33;;
44606;SDS011;30315;46.072;14.474;2023-09-19T12:18:49;1.75;;;1.65;;
44606;SDS011;30315;46.072;14.474;2023-09-19T12:21:24;2.72;;;1.60;;
44606;SDS011;30315;46.072;14.474;2023-09-19T12:23:58;1.88;;;1.60;;
44606;SDS011;30315;46.072;14.474;2023-09-19T12:26:39;1.75;;;1.65;;
44606;SDS011;30315;46.072;14.474;2023-09-19T12:29:11;2.28;;;1.52;;
44606;SDS011;30315;46.072;14.474;2023-09-19T12:31:49;2.45;;;1.77;;
44606;SDS011;30315;46.072;14.474;2023-09-19T12:34:21;2.10;;;1.90;;
44606;SDS011;30315;46.072;14.474;2023-09-19T12:37:05;2.38;;;1.70;;
44606;SDS011;30315;46.072;14.474;2023-09-19T12:39:42;2.00;;;1.90;;
44606;SDS011;30315;46.072;14.474;2023-09-19T12:42:15;3.30;;;1.95;;
44606;SDS011;30315;46.072;14.474;2023-09-19T12:44:48;4.07;;;2.00;;
44606;SDS011;30315;46.072;14.474;2023-09-19T12:47:24;1.92;;;1.80;;
44606;SDS011;30315;46.072;14.474;2023-09-19T12:52:55;1.92;;;1.80;;
44606;SDS011;30315;46.072;14.474;2023-09-19T12:55:27;3.08;;;1.65;;
44606;SDS011;30315;46.072;14.474;2023-09-19T12:58:11;1.90;;;1.63;;
44606;SDS011;30315;46.072;14.474;2023-09-19T13:00:39;2.83;;;1.80;;
44606;SDS011;30315;46.072;14.474;2023-09-19T13:03:09;2.47;;;1.90;;
44606;SDS011;30315;46.072;14.474;2023-09-19T13:05:56;1.58;;;1.48;;
44606;SDS011;30315;46.072;14.474;2023-09-19T13:08:28;2.00;;;1.40;;
44606;SDS011;30315;46.072;14.474;2023-09-19T13:13:46;1.50;;;1.30;;
44606;SDS011;30315;46.072;14.474;2023-09-19T13:16:34;5.22;;;1.40;;
44606;SDS011;30315;46.072;14.474;2023-09-19T13:19:48;1.60;;;1.50;;
44606;SDS011;30315;46.072;14.474;2023-09-19T13:25:41;1.48;;;1.38;;
44606;SDS011;30315;46.072;14.474;2023-09-19T13:28:08;1.17;;;1.17;;
44606;SDS011;30315;46.072;14.474;2023-09-19T13:30:36;1.45;;;1.25;;
44606;SDS011;30315;46.072;14.474;2023-09-19T13:33:09;1.50;;;1.40;;
44606;SDS011;30315;46.072;14.474;2023-09-19T13:35:38;1.58;;;1.48;;
44606;SDS011;30315;46.072;14.474;2023-09-19T13:38:07;1.83;;;1.38;;
44606;SDS011;30315;46.072;14.474;2023-09-19T13:40:38;1.65;;;1.55;;
44606;SDS011;30315;46.072;14.474;2023-09-19T13:43:06;2.00;;;1.30;;
44606;SDS011;30315;46.072;14.474;2023-09-19T13:45:33;1.48;;;1.13;;
44606;SDS011;30315;46.072;14.474;2023-09-19T13:48:01;1.70;;;1.40;;
44606;SDS011;30315;46.072;14.474;2023-09-19T13:50:32;1.95;;;1.42;;
44606;SDS011;30315;46.072;14.474;2023-09-19T13:56:01;2.05;;;1.42;;
44606;SDS011;30315;46.072;14.474;2023-09-19T13:58:28;2.20;;;1.30;;
44606;SDS011;30315;46.072;14.474;2023-09-19T14:00:56;1.90;;;1.15;;
44606;SDS011;30315;46.072;14.474;2023-09-19T14:03:25;1.35;;;1.20;;
44606;SDS011;30315;46.072;14.474;2023-09-19T14:05:55;1.67;;;1.10;;
44606;SDS011;30315;46.072;14.474;2023-09-19T14:08:21;1.10;;;1.10;;
44606;SDS011;30315;46.072;14.474;2023-09-19T14:10:50;2.58;;;1.30;;
44606;SDS011;30315;46.072;14.474;2023-09-19T14:13:17;1.67;;;1.38;;
44606;SDS011;30315;46.072;14.474;2023-09-19T14:15:44;1.30;;;1.02;;
44606;SDS011;30315;46.072;14.474;2023-09-19T14:18:11;1.40;;;1.30;;
44606;SDS011;30315;46.072;14.474;2023-09-19T14:20:39;1.48;;;1.20;;
44606;SDS011;30315;46.072;14.474;2023-09-19T14:23:11;2.95;;;1.23;;
44606;SDS011;30315;46.072;14.474;2023-09-19T14:25:38;1.48;;;1.20;;
44606;SDS011;30315;46.072;14.474;2023-09-19T14:28:05;2.63;;;1.20;;
44606;SDS011;30315;46.072;14.474;2023-09-19T14:30:35;1.20;;;1.10;;
44606;SDS011;30315;46.072;14.474;2023-09-19T14:33:04;1.73;;;1.63;;
44606;SDS011;30315;46.072;14.474;2023-09-19T14:35:36;7.65;;;1.60;;
44606;SDS011;30315;46.072;14.474;2023-09-19T14:40:32;1.65;;;1.30;;
44606;SDS011;30315;46.072;14.474;2023-09-19T14:42:59;1.23;;;1.13;;
44606;SDS011;30315;46.072;14.474;2023-09-19T14:45:26;1.40;;;1.10;;
44606;SDS011;30315;46.072;14.474;2023-09-19T14:47:55;1.20;;;1.10;;
44606;SDS011;30315;46.072;14.474;2023-09-19T14:50:25;2.20;;;1.40;;
44606;SDS011;30315;46.072;14.474;2023-09-19T14:52:53;2.10;;;1.67;;
44606;SDS011;30315;46.072;14.474;2023-09-19T14:55:20;1.48;;;1.30;;
44606;SDS011;30315;46.072;14.474;2023-09-19T14:57:49;2.50;;;1.27;;
44606;SDS011;30315;46.072;14.474;2023-09-19T15:00:18;2.88;;;1.30;;
44606;SDS011;30315;46.072;14.474;2023-09-19T15:02:47;1.67;;;1.30;;
44606;SDS011;30315;46.072;14.474;2023-09-19T15:05:17;1.40;;;1.30;;
44606;SDS011;30315;46.072;14.474;2023-09-19T15:07:46;1.50;;;1.40;;
44606;SDS011;30315;46.072;14.474;2023-09-19T15:10:13;1.20;;;1.10;;
44606;SDS011;30315;46.072;14.474;2023-09-19T15:12:40;1.85;;;1.10;;
44606;SDS011;30315;46.072;14.474;2023-09-19T15:15:07;1.23;;;1.20;;
44606;SDS011;30315;46.072;14.474;2023-09-19T15:17:35;1.10;;;1.10;;
44606;SDS011;30315;46.072;14.474;2023-09-19T15:20:03;2.90;;;1.30;;
44606;SDS011;30315;46.072;14.474;2023-09-19T15:25:01;3.47;;;1.45;;
44606;SDS011;30315;46.072;14.474;2023-09-19T15:27:28;1.95;;;1.50;;
44606;SDS011;30315;46.072;14.474;2023-09-19T15:29:57;4.30;;;1.80;;
44606;SDS011;30315;46.072;14.474;2023-09-19T15:32:29;2.95;;;1.17;;
44606;SDS011;30315;46.072;14.474;2023-09-19T15:34:56;2.00;;;1.38;;
44606;SDS011;30315;46.072;14.474;2023-09-19T15:37:23;1.73;;;1.40;;
44606;SDS011;30315;46.072;14.474;2023-09-19T15:39:53;1.27;;;1.10;;
44606;SDS011;30315;46.072;14.474;2023-09-19T15:42:20;1.95;;;1.20;;
44606;SDS011;30315;46.072;14.474;2023-09-19T15:44:47;2.15;;;1.67;;
44606;SDS011;30315;46.072;14.474;2023-09-19T15:47:16;1.55;;;1.45;;